Time;durP1;ratioP1;P1;durP2;ratioP2;P2;SDS_P1;SDS_P2;PMS_P1;PMS_P2;Temp;Humidity;BMP_temperature;BMP_pressure;BME280_temperature;BME280_humidity;BME280_pressure;Samples;Min_cycle;Max_cycle;Signal;HPM_P1;HPM_P2
2022/05/14 00:01:29;;;;;;;0.50;0.30;;;;;;;16.42;100.00;95297.16;5113217;28;20937;-57
2022/05/14 00:03:58;;;;;;;0.40;0.30;;;;;;;16.79;100.00;95304.00;5113461;28;20495;-57
2022/05/14 00:06:28;;;;;;;2.20;0.37;;;;;;;16.84;100.00;95300.41;5113091;28;20438;-57
2022/05/14 00:09:01;;;;;;;0.50;0.40;;;;;;;16.85;100.00;95285.94;5113280;28;20502;-57
2022/05/14 00:14:17;;;;;;;1.53;1.53;;;;;;;16.97;100.00;95278.09;5112286;28;20493;-57
2022/05/14 00:16:45;;;;;;;0.40;0.30;;;;;;;16.95;100.00;95281.06;5113278;28;20440;-58
2022/05/14 00:19:15;;;;;;;0.50;0.40;;;;;;;16.89;100.00;95276.16;5113168;28;20447;-57
2022/05/14 00:21:43;;;;;;;0.40;0.30;;;;;;;16.98;100.00;95285.00;5113112;28;20458;-57
2022/05/14 00:24:12;;;;;;;0.40;0.30;;;;;;;16.99;100.00;95281.25;5112786;28;20480;-57
2022/05/14 00:26:42;;;;;;;0.53;0.43;;;;;;;16.97;100.00;95278.09;5112717;28;20457;-57
2022/05/14 00:29:13;;;;;;;0.40;0.20;;;;;;;16.31;100.00;95212.94;5113056;28;20467;-57
2022/05/14 00:31:41;;;;;;;0.40;0.30;;;;;;;16.71;100.00;95279.88;5113011;28;20423;-56
2022/05/14 00:34:10;;;;;;;0.40;0.30;;;;;;;16.86;100.00;95274.09;5112891;28;20424;-57
2022/05/14 00:36:38;;;;;;;0.40;0.30;;;;;;;16.81;100.00;95274.25;5112667;28;20719;-57
2022/05/14 00:39:07;;;;;;;0.80;0.80;;;;;;;16.77;100.00;95275.97;5112596;28;20457;-56
2022/05/14 00:41:36;;;;;;;0.40;0.30;;;;;;;15.83;100.00;95233.41;5112592;28;20522;-56
2022/05/14 00:44:07;;;;;;;0.50;0.50;;;;;;;16.08;100.00;95275.56;5112551;28;20427;-56
2022/05/14 00:46:45;;;;;;;0.40;0.30;;;;;;;16.39;100.00;95271.00;5112363;28;20454;-56
2022/05/14 00:49:14;;;;;;;0.60;0.30;;;;;;;16.41;100.00;95276.88;5112445;28;20925;-56
2022/05/14 00:51:45;;;;;;;0.97;0.97;;;;;;;16.45;100.00;95266.31;5112346;28;20548;-56
2022/05/14 00:54:16;;;;;;;0.80;0.77;;;;;;;15.93;100.00;95275.13;5112335;28;20430;-56
2022/05/14 00:56:48;;;;;;;0.53;0.47;;;;;;;15.04;100.00;95283.72;5112200;28;20451;-56
2022/05/14 00:59:20;;;;;;;0.40;0.40;;;;;;;14.54;100.00;95287.34;5112330;28;20466;-56
2022/05/14 01:01:50;;;;;;;0.40;0.20;;;;;;;14.60;100.00;95294.94;5112193;28;20925;-56
2022/05/14 01:04:21;;;;;;;0.50;0.40;;;;;;;14.58;100.00;95288.31;5112661;28;20454;-56
2022/05/14 01:06:55;;;;;;;1.47;0.60;;;;;;;14.83;100.00;95290.53;5111395;28;20427;-56
2022/05/14 01:09:24;;;;;;;0.80;0.80;;;;;;;14.66;100.00;95298.31;5112152;28;20471;-56
2022/05/14 01:11:54;;;;;;;0.50;0.30;;;;;;;14.88;100.00;95282.41;5112020;28;20987;-56
2022/05/14 01:14:24;;;;;;;0.50;0.30;;;;;;;14.25;100.00;95214.75;5112027;28;20462;-56
2022/05/14 01:16:53;;;;;;;0.50;0.40;;;;;;;14.90;100.00;95282.13;5112429;28;20506;-56
2022/05/14 01:19:21;;;;;;;0.50;0.40;;;;;;;15.20;100.00;95300.22;5112588;28;20452;-56
2022/05/14 01:22:03;;;;;;;0.40;0.30;;;;;;;15.53;100.00;95291.00;5111789;28;20946;-56
2022/05/14 01:27:29;;;;;;;0.50;0.40;;;;;;;15.62;100.00;95291.84;5112206;28;20463;-56
2022/05/14 01:29:58;;;;;;;1.00;0.50;;;;;;;15.44;100.00;95290.06;5111511;28;20916;-56
2022/05/14 01:32:26;;;;;;;0.50;0.30;;;;;;;15.23;100.00;95294.25;5111970;28;20467;-57
2022/05/14 01:34:55;;;;;;;0.93;0.87;;;;;;;15.25;100.00;95292.88;5111895;28;20882;-56
2022/05/14 01:37:24;;;;;;;0.50;0.30;;;;;;;15.22;100.00;95271.34;5112087;28;20515;-56
2022/05/14 01:39:53;;;;;;;0.60;0.30;;;;;;;14.95;100.00;95213.41;5112476;28;20437;-56
2022/05/14 01:42:21;;;;;;;0.70;0.50;;;;;;;15.57;100.00;95289.28;5112228;28;20455;-56
2022/05/14 01:44:51;;;;;;;0.70;0.70;;;;;;;15.15;100.00;95265.59;5111996;28;20420;-56
2022/05/14 01:47:19;;;;;;;0.60;0.40;;;;;;;15.25;100.00;95295.53;5111456;28;20868;-56
2022/05/14 01:49:48;;;;;;;0.40;0.30;;;;;;;15.46;100.00;95292.47;5111700;28;20517;-56
2022/05/14 01:52:16;;;;;;;0.50;0.50;;;;;;;15.44;100.00;95284.75;5112094;28;20812;-56
2022/05/14 01:54:45;;;;;;;0.60;0.30;;;;;;;15.02;100.00;95277.88;5112020;28;20990;-56
2022/05/14 01:57:13;;;;;;;0.57;0.40;;;;;;;15.31;100.00;95290.09;5112117;28;20419;-56
2022/05/14 01:59:42;;;;;;;0.80;0.40;;;;;;;15.48;100.00;95291.09;5111874;28;20426;-56
2022/05/14 02:02:12;;;;;;;0.50;0.30;;;;;;;15.50;100.00;95288.13;5111698;28;20466;-56
2022/05/14 02:04:40;;;;;;;0.50;0.50;;;;;;;15.46;100.00;95281.78;5112042;28;20482;-56
2022/05/14 02:07:09;;;;;;;0.83;0.40;;;;;;;15.09;100.00;95278.25;5111677;28;20526;-56
2022/05/14 02:09:37;;;;;;;0.40;0.40;;;;;;;15.33;100.00;95285.25;5111691;28;20423;-56
2022/05/14 02:12:06;;;;;;;0.50;0.47;;;;;;;15.10;100.00;95282.50;5112631;28;20569;-56
2022/05/14 02:14:36;;;;;;;0.70;0.37;;;;;;;15.31;100.00;95274.06;5115073;28;20459;-56
2022/05/14 02:17:05;;;;;;;0.40;0.27;;;;;;;14.86;100.00;95239.22;5115517;28;20458;-56
2022/05/14 02:19:35;;;;;;;4.20;0.90;;;;;;;15.23;100.00;95273.69;5115259;28;20419;-56
2022/05/14 02:22:05;;;;;;;1.07;1.07;;;;;;;15.45;100.00;95265.00;5115492;28;20463;-56
2022/05/14 02:24:34;;;;;;;0.40;0.30;;;;;;;15.33;100.00;95264.66;5115100;28;20944;-56
2022/05/14 02:27:03;;;;;;;0.50;0.40;;;;;;;15.31;100.00;95274.06;5115420;28;20427;-56
2022/05/14 02:29:50;;;;;;;0.40;0.30;;;;;;;15.19;100.00;95278.06;5115207;28;20427;-56
2022/05/14 02:32:19;;;;;;;0.40;0.30;;;;;;;15.33;100.00;95269.25;5114537;28;21048;-56
2022/05/14 02:34:49;;;;;;;0.73;0.73;;;;;;;14.86;100.00;95273.91;5115197;28;20519;-56
2022/05/14 02:37:20;;;;;;;0.40;0.30;;;;;;;14.77;100.00;95273.03;5115149;28;20423;-56
2022/05/14 02:39:48;;;;;;;0.40;0.27;;;;;;;14.75;100.00;95274.44;5114796;28;20455;-56
2022/05/14 02:42:17;;;;;;;0.77;0.77;;;;;;;14.34;100.00;95199.72;5114903;28;20510;-56
2022/05/14 02:44:46;;;;;;;0.40;0.30;;;;;;;14.79;100.00;95225.50;5114644;28;20438;-56
2022/05/14 02:47:14;;;;;;;0.73;0.53;;;;;;;15.39;100.00;95268.03;5114759;28;20462;-56
2022/05/14 02:49:43;;;;;;;0.40;0.30;;;;;;;15.43;100.00;95261.78;5114607;28;20432;-56
2022/05/14 02:52:13;;;;;;;0.50;0.50;;;;;;;15.47;100.00;95270.03;5114495;28;21062;-56
2022/05/14 02:54:42;;;;;;;0.40;0.30;;;;;;;15.41;100.00;95268.50;5114548;28;20777;-56
2022/05/14 02:57:10;;;;;;;0.77;0.77;;;;;;;15.03;100.00;95226.06;5114497;28;20451;-56
2022/05/14 02:59:39;;;;;;;0.40;0.30;;;;;;;15.45;100.00;95274.84;5114270;28;20518;-56
2022/05/14 03:02:07;;;;;;;3.27;0.73;;;;;;;15.40;100.00;95277.63;5114360;28;20799;-56
2022/05/14 03:04:38;;;;;;;0.40;0.30;;;;;;;15.10;100.00;95261.16;5114275;28;20437;-56
2022/05/14 03:07:10;;;;;;;0.60;0.60;;;;;;;15.28;100.00;95276.25;5114317;28;20511;-56
2022/05/14 03:09:41;;;;;;;0.50;0.43;;;;;;;15.43;100.00;95267.13;5114426;28;20847;-56
2022/05/14 03:12:12;;;;;;;1.10;0.60;;;;;;;15.53;100.00;95277.66;5114388;28;20491;-56
2022/05/14 03:14:41;;;;;;;0.53;0.40;;;;;;;15.54;100.00;95270.41;5114203;28;20538;-55
2022/05/14 03:17:10;;;;;;;0.70;0.70;;;;;;;15.60;100.00;95261.19;5114106;28;20464;-56
2022/05/14 03:19:38;;;;;;;8.13;0.50;;;;;;;15.62;100.00;95278.50;5114283;28;20892;-55
2022/05/14 03:22:07;;;;;;;4.10;1.40;;;;;;;15.62;100.00;95270.47;5114037;28;20943;-56
2022/05/14 03:24:37;;;;;;;0.53;0.50;;;;;;;15.59;100.00;95272.94;5113972;28;20511;-56
2022/05/14 03:27:08;;;;;;;0.60;0.60;;;;;;;15.46;100.00;95281.78;5113569;28;20912;-56
2022/05/14 03:29:36;;;;;;;1.13;0.40;;;;;;;15.72;100.00;95282.81;5112389;28;20451;-57
2022/05/14 03:32:05;;;;;;;0.63;0.50;;;;;;;15.15;100.00;95229.00;5113476;28;20478;-55
2022/05/14 03:34:36;;;;;;;0.43;0.27;;;;;;;15.68;100.00;95279.97;5113303;28;20439;-55
2022/05/14 03:37:05;;;;;;;0.40;0.30;;;;;;;15.53;100.00;95285.66;5113999;28;20447;-56
2022/05/14 03:39:33;;;;;;;0.40;0.30;;;;;;;15.00;100.00;95295.28;5113743;28;20427;-55
2022/05/14 03:42:02;;;;;;;0.40;0.30;;;;;;;14.77;100.00;95297.06;5113534;28;20518;-55
2022/05/14 03:44:32;;;;;;;5.40;1.27;;;;;;;14.51;100.00;95293.25;5113133;28;20478;-55
2022/05/14 03:47:00;;;;;;;0.60;0.53;;;;;;;13.10;100.00;95071.84;5113935;28;20464;-55
2022/05/14 03:49:29;;;;;;;0.73;0.70;;;;;;;14.79;100.00;95300.22;5113394;28;20949;-55
2022/05/14 03:51:57;;;;;;;0.40;0.30;;;;;;;14.81;100.00;95292.69;5113073;28;20967;-56
2022/05/14 03:54:30;;;;;;;0.40;0.30;;;;;;;14.69;100.00;95303.06;5113336;28;20492;-55
2022/05/14 03:56:58;;;;;;;0.40;0.30;;;;;;;14.54;100.00;95303.34;5113321;28;20449;-56
2022/05/14 03:59:27;;;;;;;0.50;0.50;;;;;;;14.41;100.00;95253.44;5113279;28;20999;-55
2022/05/14 04:01:57;;;;;;;0.40;0.30;;;;;;;14.82;100.00;95310.31;5113562;28;20460;-56
2022/05/14 04:04:25;;;;;;;0.40;0.40;;;;;;;14.57;100.00;95314.19;5113610;28;20447;-56
2022/05/14 04:06:54;;;;;;;0.70;0.70;;;;;;;14.64;100.00;95308.50;5113189;28;20518;-55
2022/05/14 04:09:22;;;;;;;0.40;0.30;;;;;;;14.77;100.00;95312.28;5113160;28;20467;-55
2022/05/14 04:11:52;;;;;;;0.40;0.40;;;;;;;14.84;100.00;95323.34;5112943;28;20455;-55
2022/05/14 04:14:20;;;;;;;0.40;0.37;;;;;;;14.84;100.00;95326.81;5112953;28;20507;-55
2022/05/14 04:16:49;;;;;;;0.50;0.50;;;;;;;14.62;100.00;95260.00;5113073;28;20860;-56
2022/05/14 04:19:20;;;;;;;0.70;0.63;;;;;;;14.84;100.00;95289.44;5112934;28;20432;-55
2022/05/14 04:21:49;;;;;;;0.50;0.37;;;;;;;15.02;100.00;95319.78;5112940;28;20459;-55
2022/05/14 04:24:17;;;;;;;0.40;0.20;;;;;;;15.40;100.00;95318.50;5112902;28;20415;-55
2022/05/14 04:26:45;;;;;;;0.60;0.43;;;;;;;15.70;100.00;95319.75;5113114;28;20988;-55
2022/05/14 04:29:14;;;;;;;0.50;0.40;;;;;;;15.76;100.00;95313.22;5112826;28;20459;-55
2022/05/14 04:31:42;;;;;;;0.70;0.40;;;;;;;15.82;100.00;95317.31;5112668;28;21055;-55
2022/05/14 04:34:11;;;;;;;0.40;0.40;;;;;;;15.80;100.00;95316.84;5112776;28;20426;-56
2022/05/14 04:36:41;;;;;;;0.43;0.43;;;;;;;15.41;100.00;95321.94;5112478;28;20786;-55
2022/05/14 04:39:10;;;;;;;13.03;0.40;;;;;;;15.45;100.00;95318.41;5112701;28;20423;-55
2022/05/14 04:41:38;;;;;;;0.50;0.40;;;;;;;15.89;100.00;95320.38;5112880;28;20507;-55
2022/05/14 04:44:13;;;;;;;0.50;0.40;;;;;;;15.96;100.00;95330.66;5112782;28;20423;-55
2022/05/14 04:46:41;;;;;;;0.77;0.73;;;;;;;15.65;100.00;95317.19;5112478;28;20435;-56
2022/05/14 04:49:09;;;;;;;0.60;0.60;;;;;;;15.94;100.00;95325.59;5112795;28;20884;-56
2022/05/14 04:51:38;;;;;;;0.40;0.30;;;;;;;16.26;100.00;95325.41;5112388;28;20510;-56
2022/05/14 04:54:08;;;;;;;0.40;0.40;;;;;;;15.80;100.00;95327.53;5112273;28;20427;-56
2022/05/14 04:56:36;;;;;;;0.47;0.47;;;;;;;15.81;100.00;95313.09;5112396;28;20882;-56
2022/05/14 04:59:05;;;;;;;0.50;0.40;;;;;;;15.73;100.00;95330.63;5112275;28;20471;-56
2022/05/14 05:01:33;;;;;;;0.40;0.30;;;;;;;15.99;100.00;95312.13;5112297;28;20792;-56
2022/05/14 05:04:01;;;;;;;0.60;0.60;;;;;;;16.39;100.00;95332.53;5112202;28;20439;-56
2022/05/14 05:06:30;;;;;;;0.50;0.40;;;;;;;16.69;100.00;95328.38;5112601;28;20427;-58
2022/05/14 05:09:00;;;;;;;0.50;0.40;;;;;;;16.99;100.00;95321.41;5112199;28;20522;-57
2022/05/14 05:11:29;;;;;;;0.40;0.30;;;;;;;17.20;100.00;95310.94;5112689;28;20447;-58
2022/05/14 05:13:58;;;;;;;0.83;0.83;;;;;;;17.15;100.00;95291.22;5112592;28;20518;-57
2022/05/14 05:16:27;;;;;;;0.50;0.40;;;;;;;17.32;100.00;95314.59;5112118;28;20529;-57
2022/05/14 05:18:55;;;;;;;1.33;0.67;;;;;;;16.79;100.00;95319.28;5112386;28;20432;-57
2022/05/14 05:21:24;;;;;;;0.50;0.30;;;;;;;16.75;100.00;95324.44;5112175;28;20515;-57
2022/05/14 05:23:53;;;;;;;0.50;0.40;;;;;;;16.78;100.00;95291.72;5113679;28;20436;-58
2022/05/14 05:26:21;;;;;;;0.40;0.40;;;;;;;16.23;100.00;95224.38;5114708;28;20420;-58
2022/05/14 05:28:53;;;;;;;0.97;0.97;;;;;;;16.65;100.00;95327.38;5118006;28;20465;-58
2022/05/14 05:31:25;;;;;;;0.83;0.77;;;;;;;16.87;100.00;95326.56;5119606;28;20503;-59
2022/05/14 05:33:53;;;;;;;1.20;1.10;;;;;;;16.85;100.00;95302.00;5118108;28;20499;-59
2022/05/14 05:36:22;;;;;;;0.50;0.30;;;;;;;17.09;100.00;95329.16;5112872;28;20941;-59
2022/05/14 05:38:53;;;;;;;0.80;0.80;;;;;;;17.01;100.00;95328.03;5119877;28;20446;-59
2022/05/14 05:41:23;;;;;;;3.10;0.80;;;;;;;17.08;100.00;95317.66;5118155;28;20419;-58
2022/05/14 05:43:53;;;;;;;0.50;0.40;;;;;;;18.08;100.00;95326.56;5117976;28;20863;-58
2022/05/14 05:46:22;;;;;;;0.73;0.60;;;;;;;18.59;100.00;95317.69;5115512;28;20423;-57
2022/05/14 05:48:50;;;;;;;0.70;0.70;;;;;;;18.65;100.00;95332.50;5119079;28;20432;-58
2022/05/14 05:51:19;;;;;;;0.53;0.40;;;;;;;19.02;98.86;95274.59;5115910;28;20466;-58
2022/05/14 05:56:51;;;;;;;0.60;0.50;;;;;;;19.09;100.00;95325.13;5117240;28;20437;-57
2022/05/14 05:59:26;;;;;;;0.40;0.33;;;;;;;18.95;100.00;95268.91;5117145;28;20964;-58
2022/05/14 06:01:55;;;;;;;0.40;0.30;;;;;;;19.39;98.96;95318.69;5116526;28;20430;-57
2022/05/14 06:04:24;;;;;;;2.83;0.87;;;;;;;18.88;98.32;95245.25;5116167;28;20443;-55
2022/05/14 06:06:53;;;;;;;1.00;0.60;;;;;;;18.88;98.98;95274.00;5116334;28;20431;-57
2022/05/14 06:09:24;;;;;;;0.60;0.60;;;;;;;20.13;91.50;95316.13;5116063;28;20476;-58
2022/05/14 06:11:52;;;;;;;0.60;0.40;;;;;;;19.53;95.09;95316.56;5115628;28;20434;-57
2022/05/14 06:14:24;;;;;;;0.50;0.40;;;;;;;19.61;93.47;95302.25;5116394;28;20467;-57
2022/05/14 06:16:55;;;;;;;1.20;0.70;;;;;;;19.16;90.52;95194.53;5116459;28;20451;-57
2022/05/14 06:19:25;;;;;;;0.63;0.60;;;;;;;20.18;88.97;95318.63;5115034;28;20427;-56
2022/05/14 06:21:54;;;;;;;3.13;0.87;;;;;;;19.84;91.23;95313.50;5115105;28;20448;-57
2022/05/14 06:24:22;;;;;;;0.90;0.90;;;;;;;19.99;90.99;95311.00;5115218;28;20436;-56
2022/05/14 06:26:51;;;;;;;0.57;0.50;;;;;;;20.16;86.61;95230.13;5115323;28;20510;-56
2022/05/14 06:29:19;;;;;;;0.67;0.67;;;;;;;20.33;90.72;95307.28;5115597;28;20801;-57
2022/05/14 06:31:49;;;;;;;0.60;0.60;;;;;;;20.57;90.33;95306.56;5115172;28;20471;-56
2022/05/14 06:34:18;;;;;;;1.13;0.90;;;;;;;20.96;87.81;95297.13;5115042;28;20536;-56
2022/05/14 06:36:46;;;;;;;1.00;0.90;;;;;;;21.15;81.70;95298.19;5114917;28;20435;-55
2022/05/14 06:39:21;;;;;;;1.83;1.30;;;;;;;21.03;82.19;95300.84;5114930;28;20436;-56
2022/05/14 06:41:53;;;;;;;0.60;0.50;;;;;;;20.82;85.15;95297.47;5115613;28;20431;-56
2022/05/14 06:44:25;;;;;;;1.20;1.10;;;;;;;21.36;84.66;95316.94;5114793;28;20466;-56
2022/05/14 06:46:57;;;;;;;0.60;0.60;;;;;;;22.14;76.91;95293.13;5114764;28;20442;-56
2022/05/14 06:49:33;;;;;;;0.60;0.50;;;;;;;21.65;76.54;95287.06;5114729;28;20437;-56
2022/05/14 06:52:14;;;;;;;0.47;0.40;;;;;;;22.06;75.56;95288.69;5114931;28;20416;-55
2022/05/14 06:54:47;;;;;;;3.27;1.57;;;;;;;22.22;72.43;95286.81;5114062;27;20578;-55
2022/05/14 06:57:18;;;;;;;0.60;0.40;;;;;;;23.09;74.51;95287.63;5114719;28;20476;-56
2022/05/14 06:59:52;;;;;;;0.50;0.50;;;;;;;23.61;66.89;95273.00;5114793;28;20435;-55
2022/05/14 07:02:28;;;;;;;0.87;0.87;;;;;;;24.08;65.09;95294.56;5114387;28;20431;-55
2022/05/14 07:07:49;;;;;;;1.00;1.00;;;;;;;23.43;61.84;95280.72;5114489;28;20974;-56
2022/05/14 07:10:18;;;;;;;0.70;0.67;;;;;;;23.63;64.85;95273.47;5114911;28;20520;-57
2022/05/14 07:12:49;;;;;;;1.10;1.10;;;;;;;22.16;60.06;95002.03;5114232;28;20838;-55
2022/05/14 07:15:17;;;;;;;0.83;0.70;;;;;;;24.58;56.77;95246.44;5113958;28;21068;-56
2022/05/14 07:17:47;;;;;;;0.93;0.93;;;;;;;24.84;58.39;95267.44;5114455;28;20458;-56
2022/05/14 07:20:16;;;;;;;0.63;0.53;;;;;;;24.79;58.52;95261.53;5113944;28;20514;-56
2022/05/14 07:22:46;;;;;;;0.60;0.50;;;;;;;24.27;55.66;95216.81;5114480;28;20476;-56
2022/05/14 07:25:14;;;;;;;1.30;1.20;;;;;;;23.27;60.52;95301.56;5113869;28;20487;-57
2022/05/14 07:27:43;;;;;;;0.70;0.70;;;;;;;22.93;58.33;95126.56;5114278;28;20408;-57
2022/05/14 07:30:13;;;;;;;0.53;0.53;;;;;;;24.22;56.53;95265.06;5113803;28;20472;-58
2022/05/14 07:32:42;;;;;;;0.50;0.50;;;;;;;24.79;58.32;95237.94;5113886;28;20495;-58
2022/05/14 07:35:12;;;;;;;3.47;1.10;;;;;;;25.33;52.37;95220.56;5113874;28;20471;-58
2022/05/14 07:37:45;;;;;;;1.40;1.30;;;;;;;24.86;54.09;95265.16;5113578;28;20427;-58
2022/05/14 07:40:18;;;;;;;1.13;0.97;;;;;;;24.40;55.51;95263.47;5113632;28;20424;-58
2022/05/14 07:42:51;;;;;;;0.63;0.63;;;;;;;24.85;52.47;95233.75;5114003;28;20424;-58
2022/05/14 07:45:24;;;;;;;4.80;0.70;;;;;;;24.68;53.80;95236.91;5113659;28;20434;-57
2022/05/14 07:47:54;;;;;;;0.67;0.67;;;;;;;24.86;51.73;95254.31;5113443;28;20935;-57
2022/05/14 07:50:25;;;;;;;1.60;1.50;;;;;;;24.03;54.98;95263.88;5113086;28;20478;-57
2022/05/14 07:52:53;;;;;;;0.70;0.60;;;;;;;24.51;52.57;95245.50;5113545;28;20416;-53
2022/05/14 07:55:22;;;;;;;0.60;0.60;;;;;;;25.27;51.75;95260.81;5113144;27;20468;-57
2022/05/14 07:57:50;;;;;;;0.70;0.70;;;;;;;25.52;49.29;95232.16;5113272;28;20467;-57
2022/05/14 08:00:19;;;;;;;0.60;0.60;;;;;;;26.31;47.21;95230.06;5113333;28;20451;-57
2022/05/14 08:02:48;;;;;;;0.40;0.30;;;;;;;26.60;46.29;95261.06;5113482;28;20435;-57
2022/05/14 08:05:20;;;;;;;0.63;0.63;;;;;;;26.44;47.22;95250.41;5113567;28;20424;-55
2022/05/14 08:07:50;;;;;;;0.50;0.50;;;;;;;26.18;47.72;95263.31;5113148;28;20492;-55
2022/05/14 08:10:19;;;;;;;0.80;0.40;;;;;;;25.64;47.87;95201.28;5112190;28;20485;-56
2022/05/14 08:12:51;;;;;;;0.43;0.37;;;;;;;26.90;44.89;95250.91;5112663;28;20480;-56
2022/05/14 08:15:25;;;;;;;0.80;0.67;;;;;;;27.37;43.94;95258.31;5112749;28;20509;-56
2022/05/14 08:17:54;;;;;;;1.10;0.87;;;;;;;27.64;41.14;95223.53;5112923;28;20435;-56
2022/05/14 08:20:24;;;;;;;0.60;0.40;;;;;;;27.63;40.39;95244.53;5112991;28;20835;-57
2022/05/14 08:25:39;;;;;;;0.80;0.80;;;;;;;28.32;40.20;95269.84;5112841;28;20435;-56
2022/05/14 08:28:08;;;;;;;0.50;0.50;;;;;;;28.11;39.07;95249.88;5112414;28;20951;-55
2022/05/14 08:30:37;;;;;;;0.57;0.50;;;;;;;28.72;38.52;95266.09;5112718;28;20484;-56
2022/05/14 08:33:07;;;;;;;0.70;0.70;;;;;;;28.10;37.93;95191.09;5112971;28;20518;-56
2022/05/14 08:35:37;;;;;;;0.50;0.50;;;;;;;28.70;37.70;95256.72;5112186;28;20482;-56
2022/05/14 08:38:07;;;;;;;0.50;0.40;;;;;;;28.92;37.02;95240.00;5112255;28;20468;-55
2022/05/14 08:40:40;;;;;;;0.67;0.67;;;;;;;28.31;39.66;95275.66;5112418;28;20527;-55
2022/05/14 08:43:15;;;;;;;0.60;0.40;;;;;;;28.93;37.19;95233.41;5112243;28;20515;-55
2022/05/14 08:45:44;;;;;;;0.60;0.60;;;;;;;29.11;36.32;95249.00;5112715;28;20435;-56
2022/05/14 08:48:17;;;;;;;0.87;0.87;;;;;;;27.84;36.41;95088.59;5112592;28;20801;-56
2022/05/14 08:50:53;;;;;;;0.40;0.37;;;;;;;30.04;34.61;95213.81;5112474;28;20867;-55
2022/05/14 08:53:26;;;;;;;0.63;0.63;;;;;;;29.92;35.11;95251.72;5112087;28;20474;-56
2022/05/14 08:56:07;;;;;;;0.73;0.40;;;;;;;29.54;35.97;95240.44;5112555;28;20558;-55
2022/05/14 08:58:42;;;;;;;0.70;0.70;;;;;;;28.27;38.05;95221.13;5112321;28;20498;-55
2022/05/14 09:01:16;;;;;;;0.60;0.60;;;;;;;29.44;38.63;95241.25;5111553;28;21007;-55
2022/05/14 09:03:45;;;;;;;0.70;0.70;;;;;;;29.07;37.86;95185.47;5112606;28;20514;-54
2022/05/14 09:06:14;;;;;;;0.87;0.70;;;;;;;30.55;36.51;95235.09;5112228;28;20960;-55
2022/05/14 09:08:44;;;;;;;0.70;0.43;;;;;;;30.65;37.82;95237.00;5112417;28;20873;-54
2022/05/14 09:11:22;;;;;;;1.37;0.90;;;;;;;30.62;36.24;95242.47;5112137;28;20419;-55
2022/05/14 09:13:53;;;;;;;0.77;0.77;;;;;;;31.56;35.46;95231.28;5111893;28;20488;-54
2022/05/14 09:16:25;;;;;;;0.87;0.87;;;;;;;32.22;34.57;95235.31;5112135;28;20649;-55
2022/05/14 09:18:54;;;;;;;0.53;0.40;;;;;;;31.33;36.84;95229.91;5111996;28;20472;-54
2022/05/14 09:21:25;;;;;;;0.90;0.90;;;;;;;31.48;37.56;95181.25;5113166;28;20513;-54
2022/05/14 09:23:57;;;;;;;0.60;0.60;;;;;;;32.41;37.16;95248.41;5116446;28;20572;-54
2022/05/14 09:26:29;;;;;;;0.53;0.53;;;;;;;32.53;37.20;95264.38;5116569;28;20478;-55
2022/05/14 09:29:01;;;;;;;1.50;0.80;;;;;;;30.99;37.73;95285.72;5116335;28;20922;-56
2022/05/14 09:31:33;;;;;;;1.10;0.57;;;;;;;28.94;36.65;95218.56;5116398;28;20430;-55
2022/05/14 09:34:06;;;;;;;0.40;0.30;;;;;;;30.04;36.38;95259.50;5116459;28;20506;-55
2022/05/14 09:36:43;;;;;;;0.40;0.40;;;;;;;29.91;35.05;95256.41;5116121;28;20434;-55
2022/05/14 09:39:16;;;;;;;0.80;0.80;;;;;;;28.87;35.02;95234.94;5116215;28;20510;-55
2022/05/14 09:41:46;;;;;;;0.50;0.50;;;;;;;28.02;36.76;95239.34;5115957;28;20427;-56
2022/05/14 09:44:19;;;;;;;0.60;0.40;;;;;;;28.14;36.14;95197.31;5115902;28;20517;-54
2022/05/14 09:46:48;;;;;;;0.67;0.67;;;;;;;28.16;36.11;95244.03;5115938;28;20431;-54
2022/05/14 09:49:23;;;;;;;0.40;0.40;;;;;;;28.50;34.76;95242.63;5115749;28;20431;-54
2022/05/14 09:51:55;;;;;;;0.40;0.30;;;;;;;27.92;34.50;95233.78;5115835;28;20454;-55
2022/05/14 09:54:29;;;;;;;0.40;0.40;;;;;;;27.92;34.46;95236.53;5115780;28;20514;-54
2022/05/14 09:57:16;;;;;;;0.50;0.50;;;;;;;27.53;34.59;95230.84;5115663;28;20517;-54
2022/05/14 10:00:02;;;;;;;0.40;0.30;;;;;;;27.60;34.56;95211.84;5115900;28;20864;-55
2022/05/14 10:02:55;;;;;;;0.47;0.37;;;;;;;27.42;35.84;95219.91;5115857;28;20419;-54
2022/05/14 10:05:50;;;;;;;0.60;0.60;;;;;;;27.14;35.96;95232.47;5115432;28;20441;-55
2022/05/14 10:08:31;;;;;;;0.40;0.40;;;;;;;26.54;37.33;95242.75;5115103;28;20924;-55
2022/05/14 10:11:11;;;;;;;0.50;0.40;;;;;;;26.56;37.99;95210.53;5115781;28;20506;-54
2022/05/14 10:13:46;;;;;;;0.50;0.37;;;;;;;26.51;37.60;95238.06;5115223;28;20805;-55
2022/05/14 10:16:23;;;;;;;0.40;0.30;;;;;;;26.94;39.81;95246.28;5115286;28;21023;-55
2022/05/14 10:19:10;;;;;;;0.30;0.20;;;;;;;26.99;38.24;95253.34;5115121;28;20858;-55
2022/05/14 10:21:50;;;;;;;0.40;0.40;;;;;;;25.90;35.94;95099.97;5114910;28;20438;-55
2022/05/14 10:27:50;;;;;;;0.47;0.43;;;;;;;26.29;35.05;95258.78;5115015;28;20526;-55
2022/05/14 10:30:25;;;;;;;0.33;0.27;;;;;;;26.04;37.20;95253.00;5114901;28;20464;-55
2022/05/14 10:33:00;;;;;;;0.30;0.30;;;;;;;26.05;37.72;95270.88;5114228;28;20479;-53
2022/05/14 10:35:36;;;;;;;0.40;0.30;;;;;;;25.18;39.11;95130.06;5115011;28;20912;-55
2022/05/14 10:38:12;;;;;;;0.30;0.30;;;;;;;26.04;40.10;95285.59;5115165;28;20854;-54
2022/05/14 10:40:44;;;;;;;0.50;0.40;;;;;;;25.40;43.25;95221.44;5114893;28;20451;-54
2022/05/14 10:43:33;;;;;;;0.70;0.70;;;;;;;25.27;43.68;95244.53;5115197;28;20423;-54
2022/05/14 10:46:07;;;;;;;0.40;0.33;;;;;;;25.27;43.81;95293.34;5114704;28;20427;-53
2022/05/14 10:48:43;;;;;;;0.40;0.33;;;;;;;25.30;45.09;95284.47;5114992;28;20427;-53
2022/05/14 10:51:19;;;;;;;0.60;0.60;;;;;;;25.57;44.42;95294.25;5114854;28;20501;-53
2022/05/14 10:53:48;;;;;;;0.40;0.30;;;;;;;25.58;45.23;95303.16;5114616;28;20939;-52
2022/05/14 10:56:24;;;;;;;0.93;0.30;;;;;;;25.34;44.64;95284.53;5114174;28;20467;-53
2022/05/14 10:59:06;;;;;;;0.70;0.60;;;;;;;25.41;45.30;95311.78;5114529;28;20427;-53
2022/05/14 11:01:38;;;;;;;0.50;0.50;;;;;;;24.19;49.17;95242.19;5114388;28;20431;-53
2022/05/14 11:04:20;;;;;;;0.40;0.30;;;;;;;24.72;50.41;95305.50;5114777;28;20499;-54
2022/05/14 11:06:54;;;;;;;0.50;0.40;;;;;;;24.78;51.05;95309.53;5114339;28;20527;-53
2022/05/14 11:09:25;;;;;;;0.40;0.30;;;;;;;24.38;53.47;95315.31;5114373;28;20929;-54
2022/05/14 11:11:57;;;;;;;0.60;0.40;;;;;;;24.51;55.56;95305.91;5114248;28;20459;-54
2022/05/14 11:14:37;;;;;;;0.60;0.50;;;;;;;24.47;54.52;95293.41;5113899;28;20452;-54
2022/05/14 11:17:17;;;;;;;0.50;0.50;;;;;;;24.54;50.42;95209.56;5113554;28;20486;-54
2022/05/14 11:19:47;;;;;;;1.03;0.30;;;;;;;24.86;51.13;95300.41;5114029;28;21040;-54
2022/05/14 11:22:25;;;;;;;0.90;0.40;;;;;;;24.84;49.11;95269.38;5113907;28;20480;-54
2022/05/14 11:24:54;;;;;;;0.50;0.40;;;;;;;24.42;50.48;95278.25;5114099;28;20458;-54
2022/05/14 11:27:29;;;;;;;0.77;0.77;;;;;;;24.67;50.28;95292.25;5113768;28;20507;-54
2022/05/14 11:30:02;;;;;;;0.50;0.50;;;;;;;24.62;52.74;95271.66;5113690;28;20468;-55
2022/05/14 11:32:44;;;;;;;3.03;0.40;;;;;;;24.39;51.51;95234.81;5114334;28;20455;-53
2022/05/14 11:35:13;;;;;;;0.40;0.40;;;;;;;24.41;56.50;95241.44;5113599;28;20976;-54
2022/05/14 11:37:44;;;;;;;0.60;0.50;;;;;;;24.24;50.60;95224.84;5113615;28;21011;-53
2022/05/14 11:40:30;;;;;;;0.40;0.30;;;;;;;24.32;53.19;95232.75;5113670;28;20446;-55
2022/05/14 11:43:21;;;;;;;0.60;0.50;;;;;;;24.65;50.67;95297.25;5113408;28;20995;-54
2022/05/14 11:46:07;;;;;;;0.40;0.40;;;;;;;24.78;51.72;95304.13;5112264;28;20515;-55
2022/05/14 11:48:43;;;;;;;0.43;0.40;;;;;;;24.16;51.90;95307.13;5113296;28;20492;-55
2022/05/14 11:51:18;;;;;;;1.03;1.00;;;;;;;22.55;54.17;95083.97;5113168;28;20451;-55
2022/05/14 11:53:53;;;;;;;0.40;0.40;;;;;;;20.20;55.46;94729.75;5113055;28;20468;-54
2022/05/14 11:56:31;;;;;;;0.50;0.40;;;;;;;23.77;54.10;95219.63;5113135;28;20502;-55
2022/05/14 11:59:06;;;;;;;0.50;0.40;;;;;;;23.69;53.43;95218.69;5113425;28;20878;-55
2022/05/14 12:01:43;;;;;;;0.50;0.30;;;;;;;24.29;54.57;95324.78;5113338;28;20506;-55
2022/05/14 12:04:18;;;;;;;0.40;0.30;;;;;;;21.96;54.19;94976.88;5113236;28;20439;-55
2022/05/14 12:07:04;;;;;;;0.50;0.47;;;;;;;23.40;55.69;95205.69;5113458;28;20793;-55